SWR69D LSZH-EBBR
Flight info
| Callsign | SWR69D |
|---|---|
| Flight time | 0h 50m |
| Altitude | 32000 |
| Route | VEBIT T10 TORPA DCT EDOPI DCT GIVOR DCT SORAL DCT IBERA DCT DIK Y37 BATTY |
| Aircraft | A320/M-SDE2E3FGHIJ1RWXY/LB1 |
Departure
| Time | 2026-05-04 09:01 |
|---|---|
| Airport | Zürich Airport (LSZH) |
Arrival
| Time | 2026-05-04 09:51 |
|---|---|
| Airport | Brussels Airport (EBBR) |
| Time | Latitude | Longitude | Altitude | Speed | Heading |
|---|---|---|---|---|---|
| 2026-05-04 08:35 | 47.46072 | 8.55435 | 1398 ft | 0 kts | 6° |
| 2026-05-04 08:51 | 47.46058 | 8.55433 | 1406 ft | 4 kts | 5° |
| 2026-05-04 08:51 | 47.46031 | 8.55431 | 1405 ft | 4 kts | 0° |
| 2026-05-04 08:52 | 47.46004 | 8.55432 | 1407 ft | 4 kts | 352° |
| 2026-05-04 08:52 | 47.45979 | 8.55442 | 1404 ft | 4 kts | 324° |
| 2026-05-04 08:52 | 47.45968 | 8.55461 | 1409 ft | 1 kts | 276° |
| 2026-05-04 08:52 | 47.45968 | 8.55467 | 1409 ft | 0 kts | 276° |
| 2026-05-04 08:54 | 47.45970 | 8.55433 | 1402 ft | 12 kts | 276° |
| 2026-05-04 08:55 | 47.45981 | 8.55279 | 1401 ft | 17 kts | 276° |
| 2026-05-04 08:55 | 47.45995 | 8.55092 | 1398 ft | 20 kts | 276° |
| 2026-05-04 08:55 | 47.46022 | 8.54926 | 1388 ft | 10 kts | 338° |
| 2026-05-04 08:55 | 47.46097 | 8.54890 | 1386 ft | 12 kts | 339° |
| 2026-05-04 08:57 | 47.46854 | 8.54382 | 1381 ft | 25 kts | 334° |
| 2026-05-04 09:01 | 47.42267 | 8.57235 | 3261 ft | 185 kts | 146° |
| 2026-05-04 09:01 | 47.41400 | 8.58586 | 3912 ft | 182 kts | 113° |
| 2026-05-04 09:01 | 47.41127 | 8.60366 | 4596 ft | 178 kts | 84° |
| 2026-05-04 09:01 | 47.41487 | 8.62150 | 4967 ft | 193 kts | 56° |
| 2026-05-04 09:02 | 47.42541 | 8.63512 | 5230 ft | 216 kts | 23° |
| 2026-05-04 09:02 | 47.44060 | 8.63728 | 5825 ft | 228 kts | 348° |
| 2026-05-04 09:02 | 47.45438 | 8.62528 | 6489 ft | 240 kts | 310° |
| 2026-05-04 09:02 | 47.46049 | 8.60249 | 7108 ft | 245 kts | 271° |
| 2026-05-04 09:03 | 47.46045 | 8.58583 | 7598 ft | 245 kts | 265° |
| 2026-05-04 09:03 | 47.45927 | 8.56073 | 8424 ft | 244 kts | 262° |
| 2026-05-04 09:03 | 47.45769 | 8.53581 | 9215 ft | 247 kts | 261° |
| 2026-05-04 09:03 | 47.45590 | 8.50935 | 9554 ft | 270 kts | 260° |
| 2026-05-04 09:04 | 47.45088 | 8.48205 | 10025 ft | 280 kts | 242° |
| 2026-05-04 09:04 | 47.44080 | 8.45730 | 10612 ft | 289 kts | 233° |
| 2026-05-04 09:04 | 47.42903 | 8.43183 | 10819 ft | 312 kts | 234° |
| 2026-05-04 09:04 | 47.41640 | 8.40451 | 11170 ft | 329 kts | 234° |
| 2026-05-04 09:05 | 47.40346 | 8.37638 | 11839 ft | 334 kts | 234° |
| 2026-05-04 09:05 | 47.39050 | 8.34783 | 12578 ft | 336 kts | 238° |
| 2026-05-04 09:05 | 47.37937 | 8.31728 | 13361 ft | 339 kts | 242° |
| 2026-05-04 09:05 | 47.36845 | 8.28646 | 14140 ft | 339 kts | 242° |
| 2026-05-04 09:06 | 47.35746 | 8.25555 | 14784 ft | 342 kts | 241° |
| 2026-05-04 09:07 | 47.30882 | 8.02047 | 18755 ft | 385 kts | 295° |
| 2026-05-04 09:08 | 47.32535 | 7.98888 | 19256 ft | 396 kts | 315° |
| 2026-05-04 09:08 | 47.34693 | 7.96324 | 19767 ft | 401 kts | 319° |
| 2026-05-04 09:08 | 47.36901 | 7.93779 | 20282 ft | 404 kts | 319° |
| 2026-05-04 09:08 | 47.39128 | 7.91216 | 20795 ft | 408 kts | 319° |
| 2026-05-04 09:09 | 47.41375 | 7.88627 | 21301 ft | 411 kts | 319° |
| 2026-05-04 09:09 | 47.43634 | 7.86014 | 21788 ft | 414 kts | 319° |
| 2026-05-04 09:09 | 47.45880 | 7.83403 | 22273 ft | 418 kts | 319° |
| 2026-05-04 09:09 | 47.48195 | 7.80699 | 22768 ft | 421 kts | 319° |
| 2026-05-04 09:10 | 47.50500 | 7.78000 | 23233 ft | 424 kts | 319° |
| 2026-05-04 09:10 | 47.52819 | 7.75283 | 23677 ft | 427 kts | 318° |
| 2026-05-04 09:10 | 47.55129 | 7.72574 | 24057 ft | 429 kts | 318° |
| 2026-05-04 09:10 | 47.57475 | 7.69825 | 24463 ft | 431 kts | 318° |
| 2026-05-04 09:11 | 47.59864 | 7.67026 | 24864 ft | 433 kts | 318° |
| 2026-05-04 09:11 | 47.62229 | 7.64252 | 25239 ft | 434 kts | 318° |
| 2026-05-04 09:11 | 47.64603 | 7.61461 | 25614 ft | 436 kts | 318° |
| 2026-05-04 09:11 | 47.66979 | 7.58662 | 25985 ft | 438 kts | 318° |
| 2026-05-04 09:12 | 47.69370 | 7.55843 | 26357 ft | 440 kts | 317° |
| 2026-05-04 09:12 | 47.71740 | 7.53045 | 26671 ft | 442 kts | 317° |
| 2026-05-04 09:14 | 47.88814 | 7.32788 | 28909 ft | 454 kts | 317° |
| 2026-05-04 09:14 | 47.91292 | 7.29838 | 29197 ft | 456 kts | 317° |
| 2026-05-04 09:14 | 47.93773 | 7.26876 | 29480 ft | 457 kts | 317° |
| 2026-05-04 09:14 | 47.96254 | 7.23905 | 29760 ft | 459 kts | 317° |
| 2026-05-04 09:15 | 47.98748 | 7.20914 | 30018 ft | 461 kts | 317° |
| 2026-05-04 09:15 | 48.01259 | 7.17899 | 30186 ft | 464 kts | 317° |
| 2026-05-04 09:15 | 48.03783 | 7.14868 | 30350 ft | 467 kts | 317° |
| 2026-05-04 09:15 | 48.06318 | 7.11823 | 30578 ft | 467 kts | 317° |
| 2026-05-04 09:17 | 48.26233 | 6.87798 | 32034 ft | 451 kts | 316° |
| 2026-05-04 09:18 | 48.31110 | 6.81860 | 32039 ft | 451 kts | 315° |
| 2026-05-04 09:18 | 48.35974 | 6.75903 | 32029 ft | 451 kts | 315° |
| 2026-05-04 09:19 | 48.40847 | 6.69946 | 32040 ft | 451 kts | 316° |
| 2026-05-04 09:19 | 48.45711 | 6.63992 | 32028 ft | 450 kts | 315° |
| 2026-05-04 09:20 | 48.50581 | 6.58028 | 32032 ft | 451 kts | 315° |
| 2026-05-04 09:20 | 48.55436 | 6.52047 | 32031 ft | 450 kts | 315° |
| 2026-05-04 09:21 | 48.60287 | 6.46052 | 32029 ft | 452 kts | 317° |
| 2026-05-04 09:21 | 48.65864 | 6.41421 | 32024 ft | 466 kts | 337° |
| 2026-05-04 09:22 | 48.69026 | 6.40212 | 32018 ft | 471 kts | 348° |
| 2026-05-04 09:22 | 48.72304 | 6.39833 | 32016 ft | 475 kts | 358° |
| 2026-05-04 09:22 | 48.78884 | 6.40456 | 32012 ft | 477 kts | 1° |
| 2026-05-04 09:23 | 48.85556 | 6.41135 | 32014 ft | 478 kts | 1° |
| 2026-05-04 09:23 | 48.92193 | 6.41807 | 32038 ft | 479 kts | 1° |
| 2026-05-04 09:25 | 49.15360 | 6.42157 | 32025 ft | 469 kts | 340° |
| 2026-05-04 09:25 | 49.18514 | 6.40848 | 32022 ft | 470 kts | 340° |
| 2026-05-04 09:26 | 49.24836 | 6.38246 | 32016 ft | 471 kts | 340° |
| 2026-05-04 09:26 | 49.31160 | 6.35642 | 32017 ft | 471 kts | 340° |
| 2026-05-04 09:27 | 49.37479 | 6.33029 | 32023 ft | 471 kts | 340° |
| 2026-05-04 09:27 | 49.43804 | 6.30415 | 32023 ft | 471 kts | 340° |
| 2026-05-04 09:28 | 49.50133 | 6.27792 | 32025 ft | 471 kts | 340° |
| 2026-05-04 09:28 | 49.56458 | 6.25181 | 32036 ft | 471 kts | 340° |
| 2026-05-04 09:29 | 49.62765 | 6.22603 | 32034 ft | 471 kts | 340° |
| 2026-05-04 09:29 | 49.69112 | 6.20002 | 32025 ft | 471 kts | 340° |
| 2026-05-04 09:30 | 49.75455 | 6.17395 | 32019 ft | 471 kts | 340° |
| 2026-05-04 09:30 | 49.81796 | 6.14780 | 32028 ft | 471 kts | 340° |
| 2026-05-04 09:31 | 49.88152 | 6.12164 | 31999 ft | 474 kts | 340° |
| 2026-05-04 09:31 | 49.94550 | 6.09859 | 31531 ft | 470 kts | 342° |
| 2026-05-04 09:32 | 49.97768 | 6.08781 | 29951 ft | 475 kts | 343° |
| 2026-05-04 09:32 | 50.01014 | 6.07700 | 28556 ft | 480 kts | 343° |
| 2026-05-04 09:34 | 50.22845 | 6.00003 | 24443 ft | 446 kts | 343° |
| 2026-05-04 09:34 | 50.25858 | 5.98925 | 23896 ft | 442 kts | 343° |
| 2026-05-04 09:34 | 50.28847 | 5.97860 | 23318 ft | 439 kts | 344° |
| 2026-05-04 09:34 | 50.31809 | 5.96804 | 22785 ft | 434 kts | 344° |
| 2026-05-04 09:35 | 50.34718 | 5.95769 | 22278 ft | 429 kts | 344° |
| 2026-05-04 09:35 | 50.37649 | 5.94723 | 21777 ft | 425 kts | 345° |
| 2026-05-04 09:35 | 50.40515 | 5.93698 | 21265 ft | 421 kts | 345° |
| 2026-05-04 09:35 | 50.43361 | 5.92678 | 20753 ft | 418 kts | 345° |
| 2026-05-04 09:37 | 50.62594 | 5.85077 | 17256 ft | 394 kts | 329° |
| 2026-05-04 09:37 | 50.64811 | 5.82618 | 16765 ft | 388 kts | 315° |
| 2026-05-04 09:38 | 50.66570 | 5.79462 | 16270 ft | 381 kts | 301° |
| 2026-05-04 09:38 | 50.67848 | 5.75845 | 15766 ft | 376 kts | 294° |
| 2026-05-04 09:38 | 50.69022 | 5.72186 | 15313 ft | 372 kts | 294° |
| 2026-05-04 09:38 | 50.70183 | 5.68561 | 14816 ft | 369 kts | 294° |
| 2026-05-04 09:39 | 50.71339 | 5.64954 | 14339 ft | 366 kts | 294° |
| 2026-05-04 09:39 | 50.72482 | 5.61382 | 13891 ft | 363 kts | 294° |
| 2026-05-04 09:39 | 50.73616 | 5.57831 | 13389 ft | 360 kts | 294° |
| 2026-05-04 09:39 | 50.74731 | 5.54328 | 12736 ft | 351 kts | 294° |
| 2026-05-04 09:40 | 50.75803 | 5.50969 | 12272 ft | 333 kts | 295° |
| 2026-05-04 09:40 | 50.76820 | 5.47785 | 11816 ft | 318 kts | 295° |
| 2026-05-04 09:40 | 50.77795 | 5.44731 | 11398 ft | 304 kts | 295° |
| 2026-05-04 09:40 | 50.78738 | 5.41769 | 10980 ft | 301 kts | 295° |
| 2026-05-04 09:41 | 50.79671 | 5.38825 | 10564 ft | 299 kts | 295° |
| 2026-05-04 09:42 | 50.85881 | 5.19157 | 8807 ft | 281 kts | 295° |
| 2026-05-04 09:43 | 50.86749 | 5.16393 | 8402 ft | 280 kts | 295° |
| 2026-05-04 09:43 | 50.87621 | 5.13629 | 7977 ft | 280 kts | 297° |
| 2026-05-04 09:43 | 50.88651 | 5.11014 | 7551 ft | 280 kts | 301° |
| 2026-05-04 09:43 | 50.89698 | 5.08427 | 7137 ft | 279 kts | 301° |
| 2026-05-04 09:44 | 50.90742 | 5.05835 | 6729 ft | 278 kts | 301° |
| 2026-05-04 09:44 | 50.91778 | 5.03253 | 6339 ft | 276 kts | 301° |
| 2026-05-04 09:44 | 50.92793 | 5.00720 | 5898 ft | 275 kts | 301° |
| 2026-05-04 09:46 | 50.97190 | 4.84213 | 4337 ft | 223 kts | 250° |
| 2026-05-04 09:46 | 50.96662 | 4.81908 | 4039 ft | 221 kts | 249° |
| 2026-05-04 09:46 | 50.96141 | 4.79630 | 3751 ft | 219 kts | 249° |
| 2026-05-04 09:47 | 50.95623 | 4.77358 | 3459 ft | 218 kts | 249° |
| 2026-05-04 09:47 | 50.95118 | 4.75141 | 3175 ft | 216 kts | 249° |
| 2026-05-04 09:49 | 50.91929 | 4.61188 | 1393 ft | 149 kts | 249° |
| 2026-05-04 09:49 | 50.91581 | 4.59674 | 1192 ft | 144 kts | 249° |
| 2026-05-04 09:49 | 50.91241 | 4.58192 | 992 ft | 142 kts | 249° |
| 2026-05-04 09:51 | 50.89389 | 4.50137 | 176 ft | 60 kts | 250° |
| 2026-05-04 09:51 | 50.89333 | 4.49726 | 177 ft | 7 kts | 305° |
| 2026-05-04 09:51 | 50.89391 | 4.49622 | 170 ft | 17 kts | 307° |
| 2026-05-04 09:51 | 50.89474 | 4.49452 | 165 ft | 22 kts | 308° |
| 2026-05-04 09:52 | 50.89575 | 4.49245 | 157 ft | 27 kts | 305° |
| 2026-05-04 09:52 | 50.89675 | 4.49156 | 150 ft | 14 kts | 21° |
| 2026-05-04 09:52 | 50.89789 | 4.49202 | 144 ft | 19 kts | 13° |
| 2026-05-04 09:52 | 50.89941 | 4.49263 | 135 ft | 25 kts | 14° |
| 2026-05-04 09:53 | 50.90127 | 4.49336 | 130 ft | 29 kts | 14° |
| 2026-05-04 09:53 | 50.90322 | 4.49390 | 121 ft | 21 kts | 335° |
| 2026-05-04 09:53 | 50.90386 | 4.49291 | 124 ft | 10 kts | 280° |
| 2026-05-04 09:53 | 50.90365 | 4.49193 | 121 ft | 9 kts | 245° |
| 2026-05-04 09:54 | 50.90338 | 4.49098 | 124 ft | 13 kts | 245° |
| 2026-05-04 09:54 | 50.90285 | 4.48915 | 121 ft | 22 kts | 243° |
| 2026-05-04 09:54 | 50.90234 | 4.48736 | 122 ft | 17 kts | 244° |
| 2026-05-04 09:54 | 50.90223 | 4.48700 | 124 ft | 2 kts | 245° |
| 2026-05-04 09:55 | 50.90221 | 4.48685 | 120 ft | 1 kts | 266° |
| 2026-05-04 09:55 | 50.90219 | 4.48676 | 120 ft | 0 kts | 249° |
| 2026-05-04 09:55 | 50.90216 | 4.48667 | 121 ft | 5 kts | 244° |
| 2026-05-04 09:55 | 50.90231 | 4.48609 | 121 ft | 7 kts | 322° |
| 2026-05-04 09:56 | 50.90273 | 4.48577 | 119 ft | 3 kts | 336° |
| 2026-05-04 09:56 | 50.90277 | 4.48574 | 119 ft | 0 kts | 335° |